Strona główna
METAR-TAF:

METAR-TAF

Lotnisko :

Chièvres, Belgia

Szerokość geograficzna: 50-34N, Długość geograficzna: 003-50E, wysokość: 60 m

Aktualna obserwacja pogody

Raport powstał 26 minut temu, godzina 05:25 UTC
Wiatr 10 kt od północny wschód
Temperatura 11°C
Wilgotność 71%
Ciśnienie 1033 hPa
Widzialność 10 km lub więcej

METAR: EBCV 280525Z AUTO 05010KT 9999 NCD 11/06 Q1033 BLU

czas: 07:51 (05:51 UTC)

Prognoza

Raport powstał 14 godziny i 10 minut temu, godzina 15:41 UTC
Prognoza ważna od 27 godzina 19 UTC do 28 godzina 07 UTC
Wiatr 11 kt od północ
Widzialność 10 km lub więcej
Mało chmury na wysokości 22000 ft

TAF: EBCV 271541Z 2719/2807 36011KT 9999 FEW220 BY EBWM

Obserwacja i prognoza pogody dla ponad 4000 lotnisk (raport METAR i TAF).

Dostępne stacje oznaczono żółtymi i czerwonymi punktami na mapie.

Najedź kursorem aby zobaczyć nazwę stacji.

Kliknij aby zobaczyć obserwacje i prognozy pogody.

Aby zmienić mapę: kliknij na zielony przycisk z czarnym krzyżykiem, aby powiększyć; na zielony przycisk z myślnikiem, aby pomniejszyć; na zielone strzałki, aby przejść do map sąsiednich.


METAR-TAF: